Monte Carlo — WDD6745 — position and weather

sailwx.info

Track history (hours):
 
Tides and Currents Weather Stations Pressure Air Temp Water Temp Dewpoint Dewpoint Depression Visibility Wind Speed Wind Dir Waves Ship Positions

Monte Carlo

Owner: PREMIER FISH CO., REDONDO BEACH, CA. More information available from US FCC via Universal Licensing System and Coast Guard Vessel Documentation Center.

Last reported at 2017-Dec-03 22:31 UTC. Time now 2017-Dec-11 01:53 UTC.
Position N 33°41' W 118°16'.

Length 22 m.

Type: Fishing. MMSI: 367176990.

Date/timePositionNaut miles runAvg speedWind from/ knotsBaromVisibWave heightAir tempDewpointWater temp
2017-Dec-03 22:31N 33°41' W 118°16'0 7.6
2017-Dec-03 22:30N 33°41' W 118°16'2 0.4
2017-Dec-03 16:36N 33°39' W 118°16'3 0.4
2017-Dec-03 07:41N 33°42' W 118°14'2 9.1
2017-Dec-03 07:30N 33°42' W 118°12'5 9.0
2017-Dec-03 06:54N 33°39' W 118°06'8 0.8
2017-Dec-02 20:50N 33°43' W 118°15'4 1.7
2017-Dec-02 18:23N 33°39' W 118°14'0 0.3
2017-Dec-02 16:46N 33°38' W 118°13'0 0.1
2017-Dec-02 16:06N 33°38' W 118°13'0 0.5
2017-Dec-02 15:51N 33°38' W 118°14'4 0.3
2017-Dec-02 00:40N 33°43' W 118°15'2 8.5
2017-Dec-02 00:28N 33°42' W 118°17'10 2.6
2017-Dec-01 20:26N 33°47' W 118°28'3 5.8
2017-Dec-01 20:00N 33°45' W 118°26'5 8.7
2017-Dec-01 19:27N 33°42' W 118°21'2 4.7
2017-Dec-01 18:59N 33°41' W 118°19'17 1.3
2017-Dec-01 05:59N 33°25' W 118°13'11 6.7
2017-Dec-01 04:25N 33°35' W 118°15'  
2017-Nov-25 21:59N 33°39' W 118°14'3 5.2
2017-Nov-25 21:27N 33°41' W 118°15'2 0.1
2017-Nov-24 23:33N 33°40' W 118°17'0 0.1
2017-Nov-24 23:30N 33°40' W 118°17'0 0.0
2017-Nov-24 22:57N 33°40' W 118°17'3 1.9
2017-Nov-24 21:13N 33°38' W 118°13'  
Track history (hours):
 
Tides and Currents Weather Stations Pressure Air Temp Water Temp Dewpoint Dewpoint Depression Visibility Wind Speed Wind Dir Waves Ship Positions

Monte Carlo

Owner: PREMIER FISH CO., REDONDO BEACH, CA. More information available from US FCC via Universal Licensing System and Coast Guard Vessel Documentation Center.

Last reported at 2017-Dec-03 22:31 UTC. Time now 2017-Dec-11 01:53 UTC.
Position N 33°41' W 118°16'.

Length 22 m.

Type: Fishing. MMSI: 367176990.

Date/timePositionNaut miles runAvg speedWind from/ knotsBaromVisibWave heightAir tempDewpointWater temp
2017-Dec-03 22:31N 33°41' W 118°16'0 7.6
2017-Dec-03 22:30N 33°41' W 118°16'2 0.4
2017-Dec-03 16:36N 33°39' W 118°16'3 0.4
2017-Dec-03 07:41N 33°42' W 118°14'2 9.1
2017-Dec-03 07:30N 33°42' W 118°12'5 9.0
2017-Dec-03 06:54N 33°39' W 118°06'8 0.8
2017-Dec-02 20:50N 33°43' W 118°15'4 1.7
2017-Dec-02 18:23N 33°39' W 118°14'0 0.3
2017-Dec-02 16:46N 33°38' W 118°13'0 0.1
2017-Dec-02 16:06N 33°38' W 118°13'0 0.5
2017-Dec-02 15:51N 33°38' W 118°14'4 0.3
2017-Dec-02 00:40N 33°43' W 118°15'2 8.5
2017-Dec-02 00:28N 33°42' W 118°17'10 2.6
2017-Dec-01 20:26N 33°47' W 118°28'3 5.8
2017-Dec-01 20:00N 33°45' W 118°26'5 8.7
2017-Dec-01 19:27N 33°42' W 118°21'2 4.7
2017-Dec-01 18:59N 33°41' W 118°19'17 1.3
2017-Dec-01 05:59N 33°25' W 118°13'11 6.7
2017-Dec-01 04:25N 33°35' W 118°15'  
2017-Nov-25 21:59N 33°39' W 118°14'3 5.2
2017-Nov-25 21:27N 33°41' W 118°15'2 0.1
2017-Nov-24 23:33N 33°40' W 118°17'0 0.1
2017-Nov-24 23:30N 33°40' W 118°17'0 0.0
2017-Nov-24 22:57N 33°40' W 118°17'3 1.9
2017-Nov-24 21:13N 33°38' W 118°13'  

Dump ship's entire track history